sensor_id;sensor_type;location;lat;lon;timestamp;temperature;humidity
24452;DHT22;13350;50.984;5.822;2023-03-16T00:01:08;4.30;99.90
24452;DHT22;13350;50.984;5.822;2023-03-16T00:03:37;4.40;99.90
24452;DHT22;13350;50.984;5.822;2023-03-16T00:06:05;4.50;99.90
24452;DHT22;13350;50.984;5.822;2023-03-16T00:08:32;4.50;99.90
24452;DHT22;13350;50.984;5.822;2023-03-16T00:11:00;4.50;99.90
24452;DHT22;13350;50.984;5.822;2023-03-16T00:13:28;4.60;99.90
24452;DHT22;13350;50.984;5.822;2023-03-16T00:15:57;4.60;99.90
24452;DHT22;13350;50.984;5.822;2023-03-16T00:18:27;4.60;99.90
24452;DHT22;13350;50.984;5.822;2023-03-16T00:20:57;4.60;99.90
24452;DHT22;13350;50.984;5.822;2023-03-16T00:23:26;4.50;99.90
24452;DHT22;13350;50.984;5.822;2023-03-16T00:25:55;4.50;99.90
24452;DHT22;13350;50.984;5.822;2023-03-16T00:28:27;4.50;99.90
24452;DHT22;13350;50.984;5.822;2023-03-16T00:30:54;4.50;99.90
24452;DHT22;13350;50.984;5.822;2023-03-16T00:33:23;4.50;99.90
24452;DHT22;13350;50.984;5.822;2023-03-16T00:35:51;4.50;99.90
24452;DHT22;13350;50.984;5.822;2023-03-16T00:38:31;4.50;99.90
24452;DHT22;13350;50.984;5.822;2023-03-16T00:41:00;4.40;99.90
24452;DHT22;13350;50.984;5.822;2023-03-16T00:43:28;4.50;99.90
24452;DHT22;13350;50.984;5.822;2023-03-16T00:45:59;4.50;99.90
24452;DHT22;13350;50.984;5.822;2023-03-16T00:48:31;4.40;99.90
24452;DHT22;13350;50.984;5.822;2023-03-16T00:50:59;4.40;99.90
24452;DHT22;13350;50.984;5.822;2023-03-16T00:53:29;4.40;99.90
24452;DHT22;13350;50.984;5.822;2023-03-16T00:55:56;4.50;99.90
24452;DHT22;13350;50.984;5.822;2023-03-16T00:58:23;4.60;99.90
24452;DHT22;13350;50.984;5.822;2023-03-16T01:00:50;4.70;99.90
24452;DHT22;13350;50.984;5.822;2023-03-16T01:03:20;4.80;99.90
24452;DHT22;13350;50.984;5.822;2023-03-16T01:05:47;4.80;99.90
24452;DHT22;13350;50.984;5.822;2023-03-16T01:08:14;4.80;99.90
24452;DHT22;13350;50.984;5.822;2023-03-16T01:10:43;4.90;99.90
24452;DHT22;13350;50.984;5.822;2023-03-16T01:13:11;4.80;99.90
24452;DHT22;13350;50.984;5.822;2023-03-16T01:15:38;4.90;99.90
24452;DHT22;13350;50.984;5.822;2023-03-16T01:18:06;4.90;99.90
24452;DHT22;13350;50.984;5.822;2023-03-16T01:20:33;5.00;99.90
24452;DHT22;13350;50.984;5.822;2023-03-16T01:23:00;5.00;99.90
24452;DHT22;13350;50.984;5.822;2023-03-16T01:25:28;5.00;99.90
24452;DHT22;13350;50.984;5.822;2023-03-16T01:27:57;5.00;99.90
24452;DHT22;13350;50.984;5.822;2023-03-16T01:30:24;5.00;99.90
24452;DHT22;13350;50.984;5.822;2023-03-16T01:32:52;5.00;99.90
24452;DHT22;13350;50.984;5.822;2023-03-16T01:35:20;5.10;99.90
24452;DHT22;13350;50.984;5.822;2023-03-16T01:37:47;5.10;99.90
24452;DHT22;13350;50.984;5.822;2023-03-16T01:40:15;5.10;99.90
24452;DHT22;13350;50.984;5.822;2023-03-16T01:42:47;5.10;99.90
24452;DHT22;13350;50.984;5.822;2023-03-16T01:48:21;5.10;99.90
24452;DHT22;13350;50.984;5.822;2023-03-16T01:50:51;5.10;99.90
24452;DHT22;13350;50.984;5.822;2023-03-16T01:53:19;5.20;99.90
24452;DHT22;13350;50.984;5.822;2023-03-16T01:55:48;5.20;99.90
24452;DHT22;13350;50.984;5.822;2023-03-16T01:58:16;5.30;99.90
24452;DHT22;13350;50.984;5.822;2023-03-16T02:00:43;5.40;99.90
24452;DHT22;13350;50.984;5.822;2023-03-16T02:03:13;5.30;99.90
24452;DHT22;13350;50.984;5.822;2023-03-16T02:05:45;5.40;99.90
24452;DHT22;13350;50.984;5.822;2023-03-16T02:08:15;5.30;99.90
24452;DHT22;13350;50.984;5.822;2023-03-16T02:10:44;5.50;99.90
24452;DHT22;13350;50.984;5.822;2023-03-16T02:13:11;5.50;99.90
24452;DHT22;13350;50.984;5.822;2023-03-16T02:15:39;5.50;99.90
24452;DHT22;13350;50.984;5.822;2023-03-16T02:18:07;5.50;99.90
24452;DHT22;13350;50.984;5.822;2023-03-16T02:20:40;5.60;99.90
24452;DHT22;13350;50.984;5.822;2023-03-16T02:23:12;5.70;99.90
24452;DHT22;13350;50.984;5.822;2023-03-16T02:25:48;5.70;99.90
24452;DHT22;13350;50.984;5.822;2023-03-16T02:28:24;5.70;99.90
24452;DHT22;13350;50.984;5.822;2023-03-16T02:30:55;5.70;99.90
24452;DHT22;13350;50.984;5.822;2023-03-16T02:33:23;5.70;99.90
24452;DHT22;13350;50.984;5.822;2023-03-16T02:35:51;5.70;99.90
24452;DHT22;13350;50.984;5.822;2023-03-16T02:38:18;5.60;99.90
24452;DHT22;13350;50.984;5.822;2023-03-16T02:40:54;5.70;99.90
24452;DHT22;13350;50.984;5.822;2023-03-16T02:43:26;5.60;99.90
24452;DHT22;13350;50.984;5.822;2023-03-16T02:45:58;5.60;99.90
24452;DHT22;13350;50.984;5.822;2023-03-16T02:48:32;5.70;99.90
24452;DHT22;13350;50.984;5.822;2023-03-16T02:51:02;5.60;99.90
24452;DHT22;13350;50.984;5.822;2023-03-16T02:53:29;5.80;99.90
24452;DHT22;13350;50.984;5.822;2023-03-16T02:55:57;5.70;99.90
24452;DHT22;13350;50.984;5.822;2023-03-16T02:58:24;5.80;99.90
24452;DHT22;13350;50.984;5.822;2023-03-16T03:00:51;5.70;99.90
24452;DHT22;13350;50.984;5.822;2023-03-16T03:03:20;5.70;99.90
24452;DHT22;13350;50.984;5.822;2023-03-16T03:05:47;5.70;99.90
24452;DHT22;13350;50.984;5.822;2023-03-16T03:08:15;5.70;99.90
24452;DHT22;13350;50.984;5.822;2023-03-16T03:10:45;5.70;99.90
24452;DHT22;13350;50.984;5.822;2023-03-16T03:13:12;5.70;99.90
24452;DHT22;13350;50.984;5.822;2023-03-16T03:15:39;5.70;99.90
24452;DHT22;13350;50.984;5.822;2023-03-16T03:18:07;5.70;99.90
24452;DHT22;13350;50.984;5.822;2023-03-16T03:20:35;5.80;99.90
24452;DHT22;13350;50.984;5.822;2023-03-16T03:23:03;5.70;99.90
24452;DHT22;13350;50.984;5.822;2023-03-16T03:25:30;5.70;99.90
24452;DHT22;13350;50.984;5.822;2023-03-16T03:28:00;5.70;99.90
24452;DHT22;13350;50.984;5.822;2023-03-16T03:30:29;5.80;99.90
24452;DHT22;13350;50.984;5.822;2023-03-16T03:32:57;5.80;99.90
24452;DHT22;13350;50.984;5.822;2023-03-16T03:35:24;5.80;99.90
24452;DHT22;13350;50.984;5.822;2023-03-16T03:37:53;5.80;99.90
24452;DHT22;13350;50.984;5.822;2023-03-16T03:40:20;5.80;99.90
24452;DHT22;13350;50.984;5.822;2023-03-16T03:42:48;5.70;99.90
24452;DHT22;13350;50.984;5.822;2023-03-16T03:45:16;5.60;99.90
24452;DHT22;13350;50.984;5.822;2023-03-16T03:47:43;5.60;99.90
24452;DHT22;13350;50.984;5.822;2023-03-16T03:50:12;5.70;99.90
24452;DHT22;13350;50.984;5.822;2023-03-16T03:52:39;5.60;99.90
24452;DHT22;13350;50.984;5.822;2023-03-16T03:55:09;5.70;99.90
24452;DHT22;13350;50.984;5.822;2023-03-16T03:57:36;5.70;99.90
24452;DHT22;13350;50.984;5.822;2023-03-16T04:00:05;5.60;99.90
24452;DHT22;13350;50.984;5.822;2023-03-16T04:02:36;5.70;99.90
24452;DHT22;13350;50.984;5.822;2023-03-16T04:05:04;5.60;99.90
24452;DHT22;13350;50.984;5.822;2023-03-16T04:07:31;5.60;99.90
24452;DHT22;13350;50.984;5.822;2023-03-16T04:09:59;5.60;99.90
24452;DHT22;13350;50.984;5.822;2023-03-16T04:12:28;5.60;99.90
24452;DHT22;13350;50.984;5.822;2023-03-16T04:14:55;5.60;99.90
24452;DHT22;13350;50.984;5.822;2023-03-16T04:17:22;5.70;99.90
24452;DHT22;13350;50.984;5.822;2023-03-16T04:19:49;5.70;99.90
24452;DHT22;13350;50.984;5.822;2023-03-16T04:22:17;5.70;99.90
24452;DHT22;13350;50.984;5.822;2023-03-16T04:24:44;5.70;99.90
24452;DHT22;13350;50.984;5.822;2023-03-16T04:27:11;5.60;99.90
24452;DHT22;13350;50.984;5.822;2023-03-16T04:29:40;5.60;99.90
24452;DHT22;13350;50.984;5.822;2023-03-16T04:32:08;5.60;99.90
24452;DHT22;13350;50.984;5.822;2023-03-16T04:34:36;5.70;99.90
24452;DHT22;13350;50.984;5.822;2023-03-16T04:37:06;5.80;99.90
24452;DHT22;13350;50.984;5.822;2023-03-16T04:39:33;5.80;99.90
24452;DHT22;13350;50.984;5.822;2023-03-16T04:42:01;5.80;99.90
24452;DHT22;13350;50.984;5.822;2023-03-16T04:44:28;5.80;99.90
24452;DHT22;13350;50.984;5.822;2023-03-16T04:46:57;5.80;99.90
24452;DHT22;13350;50.984;5.822;2023-03-16T04:49:25;5.90;99.90
24452;DHT22;13350;50.984;5.822;2023-03-16T04:51:52;5.80;99.90
24452;DHT22;13350;50.984;5.822;2023-03-16T04:54:19;5.80;99.90
24452;DHT22;13350;50.984;5.822;2023-03-16T04:56:46;5.80;99.90
24452;DHT22;13350;50.984;5.822;2023-03-16T04:59:14;5.80;99.90
24452;DHT22;13350;50.984;5.822;2023-03-16T05:01:41;5.80;99.90
24452;DHT22;13350;50.984;5.822;2023-03-16T05:04:10;5.80;99.90
24452;DHT22;13350;50.984;5.822;2023-03-16T05:06:38;5.70;99.90
24452;DHT22;13350;50.984;5.822;2023-03-16T05:09:06;5.80;99.90
24452;DHT22;13350;50.984;5.822;2023-03-16T05:11:34;5.80;99.90
24452;DHT22;13350;50.984;5.822;2023-03-16T05:14:01;5.80;99.90
24452;DHT22;13350;50.984;5.822;2023-03-16T05:16:29;5.80;99.90
24452;DHT22;13350;50.984;5.822;2023-03-16T05:18:57;5.90;99.90
24452;DHT22;13350;50.984;5.822;2023-03-16T05:21:26;5.80;99.90
24452;DHT22;13350;50.984;5.822;2023-03-16T05:23:56;5.80;99.90
24452;DHT22;13350;50.984;5.822;2023-03-16T05:26:24;5.80;99.90
24452;DHT22;13350;50.984;5.822;2023-03-16T05:28:51;5.90;99.90
24452;DHT22;13350;50.984;5.822;2023-03-16T05:31:19;5.80;99.90
24452;DHT22;13350;50.984;5.822;2023-03-16T05:33:48;5.80;99.90
24452;DHT22;13350;50.984;5.822;2023-03-16T05:36:15;5.80;99.90
24452;DHT22;13350;50.984;5.822;2023-03-16T05:38:44;5.80;99.90
24452;DHT22;13350;50.984;5.822;2023-03-16T05:41:12;5.90;99.90
24452;DHT22;13350;50.984;5.822;2023-03-16T05:43:39;5.90;99.90
24452;DHT22;13350;50.984;5.822;2023-03-16T05:46:06;5.80;99.90
24452;DHT22;13350;50.984;5.822;2023-03-16T05:48:34;5.90;99.90
24452;DHT22;13350;50.984;5.822;2023-03-16T05:51:02;5.80;99.90
24452;DHT22;13350;50.984;5.822;2023-03-16T05:53:30;5.80;99.90
24452;DHT22;13350;50.984;5.822;2023-03-16T05:55:59;5.90;99.90
24452;DHT22;13350;50.984;5.822;2023-03-16T05:58:26;5.90;99.90
24452;DHT22;13350;50.984;5.822;2023-03-16T06:00:54;5.80;99.90
24452;DHT22;13350;50.984;5.822;2023-03-16T06:03:21;5.80;99.90
24452;DHT22;13350;50.984;5.822;2023-03-16T06:05:49;5.80;99.90
24452;DHT22;13350;50.984;5.822;2023-03-16T06:08:16;5.90;99.90
24452;DHT22;13350;50.984;5.822;2023-03-16T06:10:45;5.90;99.90
24452;DHT22;13350;50.984;5.822;2023-03-16T06:13:14;6.00;99.90
24452;DHT22;13350;50.984;5.822;2023-03-16T06:15:41;6.00;99.90
24452;DHT22;13350;50.984;5.822;2023-03-16T06:18:09;6.10;99.90
24452;DHT22;13350;50.984;5.822;2023-03-16T06:20:36;6.00;99.90
24452;DHT22;13350;50.984;5.822;2023-03-16T06:23:03;6.00;99.90
24452;DHT22;13350;50.984;5.822;2023-03-16T06:25:31;6.00;99.90
24452;DHT22;13350;50.984;5.822;2023-03-16T06:27:59;6.00;99.90
24452;DHT22;13350;50.984;5.822;2023-03-16T06:30:27;6.00;99.90
24452;DHT22;13350;50.984;5.822;2023-03-16T06:32:55;6.00;99.90
24452;DHT22;13350;50.984;5.822;2023-03-16T06:35:24;6.10;99.90
24452;DHT22;13350;50.984;5.822;2023-03-16T06:37:52;6.10;99.90
24452;DHT22;13350;50.984;5.822;2023-03-16T06:40:19;6.20;99.90
24452;DHT22;13350;50.984;5.822;2023-03-16T06:42:46;6.30;99.90
24452;DHT22;13350;50.984;5.822;2023-03-16T06:45:14;6.30;99.90
24452;DHT22;13350;50.984;5.822;2023-03-16T06:47:43;6.30;99.90
24452;DHT22;13350;50.984;5.822;2023-03-16T06:50:11;6.30;99.90
24452;DHT22;13350;50.984;5.822;2023-03-16T06:52:39;6.50;99.90
24452;DHT22;13350;50.984;5.822;2023-03-16T06:55:07;6.50;99.90
24452;DHT22;13350;50.984;5.822;2023-03-16T06:57:35;6.50;99.90
24452;DHT22;13350;50.984;5.822;2023-03-16T07:00:03;6.50;99.90
24452;DHT22;13350;50.984;5.822;2023-03-16T07:02:32;6.40;99.90
24452;DHT22;13350;50.984;5.822;2023-03-16T07:05:02;6.40;99.90
24452;DHT22;13350;50.984;5.822;2023-03-16T07:07:29;6.60;99.90
24452;DHT22;13350;50.984;5.822;2023-03-16T07:09:56;6.60;99.90
24452;DHT22;13350;50.984;5.822;2023-03-16T07:12:23;6.60;99.90
24452;DHT22;13350;50.984;5.822;2023-03-16T07:14:51;6.60;99.90
24452;DHT22;13350;50.984;5.822;2023-03-16T07:17:18;6.60;99.90
24452;DHT22;13350;50.984;5.822;2023-03-16T07:19:46;6.70;99.90
24452;DHT22;13350;50.984;5.822;2023-03-16T07:22:15;6.70;99.90
24452;DHT22;13350;50.984;5.822;2023-03-16T07:24:42;6.80;99.90
24452;DHT22;13350;50.984;5.822;2023-03-16T07:27:10;6.70;99.90
24452;DHT22;13350;50.984;5.822;2023-03-16T07:29:37;6.70;99.90
24452;DHT22;13350;50.984;5.822;2023-03-16T07:32:05;6.50;99.90
24452;DHT22;13350;50.984;5.822;2023-03-16T07:34:32;6.50;99.90
24452;DHT22;13350;50.984;5.822;2023-03-16T07:37:00;6.40;99.90
24452;DHT22;13350;50.984;5.822;2023-03-16T07:39:28;6.40;99.90
24452;DHT22;13350;50.984;5.822;2023-03-16T07:41:56;6.40;99.90
24452;DHT22;13350;50.984;5.822;2023-03-16T07:44:23;6.40;99.90
24452;DHT22;13350;50.984;5.822;2023-03-16T07:46:51;6.40;99.90
24452;DHT22;13350;50.984;5.822;2023-03-16T07:49:18;6.50;99.90
24452;DHT22;13350;50.984;5.822;2023-03-16T07:51:46;6.60;99.90
24452;DHT22;13350;50.984;5.822;2023-03-16T07:54:13;6.70;99.90
24452;DHT22;13350;50.984;5.822;2023-03-16T07:56:42;6.70;99.90
24452;DHT22;13350;50.984;5.822;2023-03-16T07:59:09;6.70;99.90
24452;DHT22;13350;50.984;5.822;2023-03-16T08:01:37;6.90;99.90
24452;DHT22;13350;50.984;5.822;2023-03-16T08:04:04;7.00;99.90
24452;DHT22;13350;50.984;5.822;2023-03-16T08:06:31;7.10;99.90
24452;DHT22;13350;50.984;5.822;2023-03-16T08:08:59;7.30;99.90
24452;DHT22;13350;50.984;5.822;2023-03-16T08:11:27;7.30;99.90
24452;DHT22;13350;50.984;5.822;2023-03-16T08:13:55;7.30;99.90
24452;DHT22;13350;50.984;5.822;2023-03-16T08:16:23;7.50;99.90
24452;DHT22;13350;50.984;5.822;2023-03-16T08:18:51;7.60;99.90
24452;DHT22;13350;50.984;5.822;2023-03-16T08:21:19;7.70;99.90
24452;DHT22;13350;50.984;5.822;2023-03-16T08:23:47;8.00;99.90
24452;DHT22;13350;50.984;5.822;2023-03-16T08:26:16;8.10;99.90
24452;DHT22;13350;50.984;5.822;2023-03-16T08:28:44;8.20;99.90
24452;DHT22;13350;50.984;5.822;2023-03-16T08:31:13;8.20;99.90
24452;DHT22;13350;50.984;5.822;2023-03-16T08:33:42;8.30;99.90
24452;DHT22;13350;50.984;5.822;2023-03-16T08:36:12;8.20;99.90
24452;DHT22;13350;50.984;5.822;2023-03-16T08:38:40;8.40;99.90
24452;DHT22;13350;50.984;5.822;2023-03-16T08:41:08;8.40;99.90
24452;DHT22;13350;50.984;5.822;2023-03-16T08:43:37;8.40;99.90
24452;DHT22;13350;50.984;5.822;2023-03-16T08:46:05;8.30;99.90
24452;DHT22;13350;50.984;5.822;2023-03-16T08:48:33;8.40;99.90
24452;DHT22;13350;50.984;5.822;2023-03-16T08:51:01;8.60;99.90
24452;DHT22;13350;50.984;5.822;2023-03-16T08:53:29;8.60;99.90
24452;DHT22;13350;50.984;5.822;2023-03-16T08:56:01;8.80;99.90
24452;DHT22;13350;50.984;5.822;2023-03-16T08:58:29;8.80;99.90
24452;DHT22;13350;50.984;5.822;2023-03-16T09:00:59;8.90;99.90
24452;DHT22;13350;50.984;5.822;2023-03-16T09:03:26;8.90;99.90
24452;DHT22;13350;50.984;5.822;2023-03-16T09:05:59;9.10;99.90
24452;DHT22;13350;50.984;5.822;2023-03-16T09:08:27;9.10;99.90
24452;DHT22;13350;50.984;5.822;2023-03-16T09:10:58;9.20;99.90
24452;DHT22;13350;50.984;5.822;2023-03-16T09:13:26;9.20;99.90
24452;DHT22;13350;50.984;5.822;2023-03-16T09:15:54;9.30;99.90
24452;DHT22;13350;50.984;5.822;2023-03-16T09:18:22;9.50;99.90
24452;DHT22;13350;50.984;5.822;2023-03-16T09:20:51;9.80;99.90
24452;DHT22;13350;50.984;5.822;2023-03-16T09:23:20;9.90;99.90
24452;DHT22;13350;50.984;5.822;2023-03-16T09:25:47;10.00;99.90
24452;DHT22;13350;50.984;5.822;2023-03-16T09:28:15;10.40;99.90
24452;DHT22;13350;50.984;5.822;2023-03-16T09:30:46;10.30;99.90
24452;DHT22;13350;50.984;5.822;2023-03-16T09:33:14;10.70;99.90
24452;DHT22;13350;50.984;5.822;2023-03-16T09:35:43;11.30;99.90
24452;DHT22;13350;50.984;5.822;2023-03-16T09:38:10;11.50;99.90
24452;DHT22;13350;50.984;5.822;2023-03-16T09:40:40;11.90;99.90
24452;DHT22;13350;50.984;5.822;2023-03-16T09:43:23;11.40;99.90
24452;DHT22;13350;50.984;5.822;2023-03-16T09:46:01;11.00;99.90
24452;DHT22;13350;50.984;5.822;2023-03-16T09:48:32;11.30;99.90
24452;DHT22;13350;50.984;5.822;2023-03-16T09:51:03;11.30;99.90
24452;DHT22;13350;50.984;5.822;2023-03-16T09:53:33;11.30;99.90
24452;DHT22;13350;50.984;5.822;2023-03-16T09:56:06;11.40;99.90
24452;DHT22;13350;50.984;5.822;2023-03-16T09:58:35;11.40;99.90
24452;DHT22;13350;50.984;5.822;2023-03-16T10:01:10;11.20;99.90
24452;DHT22;13350;50.984;5.822;2023-03-16T10:03:57;11.90;99.90
24452;DHT22;13350;50.984;5.822;2023-03-16T10:06:28;12.80;99.90
24452;DHT22;13350;50.984;5.822;2023-03-16T10:09:03;13.10;99.90
24452;DHT22;13350;50.984;5.822;2023-03-16T10:11:36;12.50;99.90
24452;DHT22;13350;50.984;5.822;2023-03-16T10:14:11;11.90;99.90
24452;DHT22;13350;50.984;5.822;2023-03-16T10:16:46;11.80;99.90
24452;DHT22;13350;50.984;5.822;2023-03-16T10:19:19;11.70;99.90
24452;DHT22;13350;50.984;5.822;2023-03-16T10:21:49;12.60;99.90
24452;DHT22;13350;50.984;5.822;2023-03-16T10:24:29;12.80;99.90
24452;DHT22;13350;50.984;5.822;2023-03-16T10:27:05;13.40;99.90
24452;DHT22;13350;50.984;5.822;2023-03-16T10:29:39;13.50;99.90
24452;DHT22;13350;50.984;5.822;2023-03-16T10:32:13;13.20;99.90
24452;DHT22;13350;50.984;5.822;2023-03-16T10:34:47;13.40;99.90
24452;DHT22;13350;50.984;5.822;2023-03-16T10:37:19;13.50;99.90
24452;DHT22;13350;50.984;5.822;2023-03-16T10:39:48;13.30;99.90
24452;DHT22;13350;50.984;5.822;2023-03-16T10:42:18;14.00;99.90
24452;DHT22;13350;50.984;5.822;2023-03-16T10:44:46;14.00;99.90
24452;DHT22;13350;50.984;5.822;2023-03-16T10:47:21;15.20;99.90
24452;DHT22;13350;50.984;5.822;2023-03-16T10:49:49;14.90;99.90
24452;DHT22;13350;50.984;5.822;2023-03-16T10:52:19;14.10;99.90
24452;DHT22;13350;50.984;5.822;2023-03-16T10:54:51;13.80;99.90
24452;DHT22;13350;50.984;5.822;2023-03-16T10:57:25;13.90;99.90
24452;DHT22;13350;50.984;5.822;2023-03-16T10:59:58;13.90;99.90
24452;DHT22;13350;50.984;5.822;2023-03-16T11:02:32;13.70;99.90
24452;DHT22;13350;50.984;5.822;2023-03-16T11:05:14;12.90;99.90
24452;DHT22;13350;50.984;5.822;2023-03-16T11:07:52;12.80;99.90
24452;DHT22;13350;50.984;5.822;2023-03-16T11:10:28;12.70;99.90
24452;DHT22;13350;50.984;5.822;2023-03-16T11:13:03;13.10;99.90
24452;DHT22;13350;50.984;5.822;2023-03-16T11:15:37;13.40;99.90
24452;DHT22;13350;50.984;5.822;2023-03-16T11:18:16;13.40;99.90
24452;DHT22;13350;50.984;5.822;2023-03-16T11:20:46;13.80;99.90
24452;DHT22;13350;50.984;5.822;2023-03-16T11:23:16;13.60;99.90
24452;DHT22;13350;50.984;5.822;2023-03-16T11:25:47;13.40;99.90
24452;DHT22;13350;50.984;5.822;2023-03-16T11:28:24;13.50;99.90
24452;DHT22;13350;50.984;5.822;2023-03-16T11:31:02;14.80;99.90
24452;DHT22;13350;50.984;5.822;2023-03-16T11:33:33;15.00;99.90
24452;DHT22;13350;50.984;5.822;2023-03-16T11:36:08;16.30;99.90
24452;DHT22;13350;50.984;5.822;2023-03-16T11:38:44;16.00;99.90
24452;DHT22;13350;50.984;5.822;2023-03-16T11:41:24;15.80;98.70
24452;DHT22;13350;50.984;5.822;2023-03-16T11:43:56;16.80;98.50
24452;DHT22;13350;50.984;5.822;2023-03-16T11:46:28;17.30;96.80
24452;DHT22;13350;50.984;5.822;2023-03-16T11:49:12;16.10;96.40
24452;DHT22;13350;50.984;5.822;2023-03-16T11:51:43;15.40;97.30
24452;DHT22;13350;50.984;5.822;2023-03-16T11:54:38;15.00;98.60
24452;DHT22;13350;50.984;5.822;2023-03-16T11:57:20;15.30;98.40
24452;DHT22;13350;50.984;5.822;2023-03-16T12:00:05;15.30;98.60
24452;DHT22;13350;50.984;5.822;2023-03-16T12:02:43;14.80;99.40
24452;DHT22;13350;50.984;5.822;2023-03-16T12:05:33;14.50;97.20
24452;DHT22;13350;50.984;5.822;2023-03-16T12:08:16;13.90;98.30
24452;DHT22;13350;50.984;5.822;2023-03-16T12:10:49;14.40;98.40
24452;DHT22;13350;50.984;5.822;2023-03-16T12:13:34;14.70;98.70
24452;DHT22;13350;50.984;5.822;2023-03-16T12:16:10;14.60;98.20
24452;DHT22;13350;50.984;5.822;2023-03-16T12:18:45;14.50;97.70
24452;DHT22;13350;50.984;5.822;2023-03-16T12:21:15;14.30;97.90
24452;DHT22;13350;50.984;5.822;2023-03-16T12:23:50;14.20;98.90
24452;DHT22;13350;50.984;5.822;2023-03-16T12:26:20;14.20;99.30
24452;DHT22;13350;50.984;5.822;2023-03-16T12:28:51;14.00;97.40
24452;DHT22;13350;50.984;5.822;2023-03-16T12:31:26;14.10;98.40
24452;DHT22;13350;50.984;5.822;2023-03-16T12:34:06;14.60;97.10
24452;DHT22;13350;50.984;5.822;2023-03-16T12:36:49;14.80;97.90
24452;DHT22;13350;50.984;5.822;2023-03-16T12:39:24;15.30;98.50
24452;DHT22;13350;50.984;5.822;2023-03-16T12:42:05;15.00;96.50
24452;DHT22;13350;50.984;5.822;2023-03-16T12:44:44;14.70;97.20
24452;DHT22;13350;50.984;5.822;2023-03-16T12:47:19;14.30;97.40
24452;DHT22;13350;50.984;5.822;2023-03-16T12:49:50;14.50;96.30
24452;DHT22;13350;50.984;5.822;2023-03-16T12:52:18;15.20;97.40
24452;DHT22;13350;50.984;5.822;2023-03-16T12:54:49;15.40;95.30
24452;DHT22;13350;50.984;5.822;2023-03-16T12:57:18;15.60;96.60
24452;DHT22;13350;50.984;5.822;2023-03-16T12:59:48;15.70;95.60
24452;DHT22;13350;50.984;5.822;2023-03-16T13:02:19;15.30;95.40
24452;DHT22;13350;50.984;5.822;2023-03-16T13:04:53;15.20;96.30
24452;DHT22;13350;50.984;5.822;2023-03-16T13:07:23;15.00;96.70
24452;DHT22;13350;50.984;5.822;2023-03-16T13:09:52;15.30;97.30
24452;DHT22;13350;50.984;5.822;2023-03-16T13:12:26;14.90;96.00
24452;DHT22;13350;50.984;5.822;2023-03-16T13:14:54;14.80;95.50
24452;DHT22;13350;50.984;5.822;2023-03-16T13:17:28;15.00;95.40
24452;DHT22;13350;50.984;5.822;2023-03-16T13:20:04;15.00;96.60
24452;DHT22;13350;50.984;5.822;2023-03-16T13:22:44;14.80;96.30
24452;DHT22;13350;50.984;5.822;2023-03-16T13:25:16;14.90;97.50
24452;DHT22;13350;50.984;5.822;2023-03-16T13:27:50;15.40;96.70
24452;DHT22;13350;50.984;5.822;2023-03-16T13:30:20;15.50;97.60
24452;DHT22;13350;50.984;5.822;2023-03-16T13:32:52;15.50;96.90
24452;DHT22;13350;50.984;5.822;2023-03-16T13:35:23;15.80;96.20
24452;DHT22;13350;50.984;5.822;2023-03-16T13:37:52;16.40;96.70
24452;DHT22;13350;50.984;5.822;2023-03-16T13:40:21;16.00;95.90
24452;DHT22;13350;50.984;5.822;2023-03-16T13:42:50;15.90;95.10
24452;DHT22;13350;50.984;5.822;2023-03-16T13:45:20;16.70;94.50
24452;DHT22;13350;50.984;5.822;2023-03-16T13:47:50;16.40;95.40
24452;DHT22;13350;50.984;5.822;2023-03-16T13:50:19;16.60;95.90
24452;DHT22;13350;50.984;5.822;2023-03-16T13:52:56;17.20;93.10
24452;DHT22;13350;50.984;5.822;2023-03-16T13:55:29;16.80;94.20
24452;DHT22;13350;50.984;5.822;2023-03-16T13:57:57;16.70;93.40
24452;DHT22;13350;50.984;5.822;2023-03-16T14:00:29;16.80;93.30
24452;DHT22;13350;50.984;5.822;2023-03-16T14:02:59;16.60;92.50
24452;DHT22;13350;50.984;5.822;2023-03-16T14:05:33;16.70;93.80
24452;DHT22;13350;50.984;5.822;2023-03-16T14:08:01;17.10;92.90
24452;DHT22;13350;50.984;5.822;2023-03-16T14:10:32;16.90;92.60
24452;DHT22;13350;50.984;5.822;2023-03-16T14:13:07;16.60;94.10
24452;DHT22;13350;50.984;5.822;2023-03-16T14:15:37;16.30;92.30
24452;DHT22;13350;50.984;5.822;2023-03-16T14:18:12;16.20;93.70
24452;DHT22;13350;50.984;5.822;2023-03-16T14:20:41;16.70;93.00
24452;DHT22;13350;50.984;5.822;2023-03-16T14:23:18;17.20;93.00
24452;DHT22;13350;50.984;5.822;2023-03-16T14:25:47;17.20;92.30
24452;DHT22;13350;50.984;5.822;2023-03-16T14:28:16;16.70;90.90
24452;DHT22;13350;50.984;5.822;2023-03-16T14:30:52;16.60;91.10
24452;DHT22;13350;50.984;5.822;2023-03-16T14:33:26;17.20;92.30
24452;DHT22;13350;50.984;5.822;2023-03-16T14:35:56;17.50;92.50
24452;DHT22;13350;50.984;5.822;2023-03-16T14:38:29;17.40;90.90
24452;DHT22;13350;50.984;5.822;2023-03-16T14:41:01;17.10;91.60
24452;DHT22;13350;50.984;5.822;2023-03-16T14:43:31;17.40;90.30
24452;DHT22;13350;50.984;5.822;2023-03-16T14:46:02;17.50;88.60
24452;DHT22;13350;50.984;5.822;2023-03-16T14:48:32;17.50;90.60
24452;DHT22;13350;50.984;5.822;2023-03-16T14:51:01;16.70;89.40
24452;DHT22;13350;50.984;5.822;2023-03-16T14:53:29;16.60;89.40
24452;DHT22;13350;50.984;5.822;2023-03-16T14:55:57;16.80;89.60
24452;DHT22;13350;50.984;5.822;2023-03-16T14:58:25;17.20;88.90
24452;DHT22;13350;50.984;5.822;2023-03-16T15:00:53;17.10;89.00
24452;DHT22;13350;50.984;5.822;2023-03-16T15:03:27;17.00;89.00
24452;DHT22;13350;50.984;5.822;2023-03-16T15:05:59;16.60;90.20
24452;DHT22;13350;50.984;5.822;2023-03-16T15:08:29;16.80;90.40
24452;DHT22;13350;50.984;5.822;2023-03-16T15:11:00;16.90;88.90
24452;DHT22;13350;50.984;5.822;2023-03-16T15:13:29;16.80;90.10
24452;DHT22;13350;50.984;5.822;2023-03-16T15:16:17;16.10;91.40
24452;DHT22;13350;50.984;5.822;2023-03-16T15:18:44;15.80;92.80
24452;DHT22;13350;50.984;5.822;2023-03-16T15:21:16;16.00;93.90
24452;DHT22;13350;50.984;5.822;2023-03-16T15:23:44;15.70;93.10
24452;DHT22;13350;50.984;5.822;2023-03-16T15:26:13;15.80;94.10
24452;DHT22;13350;50.984;5.822;2023-03-16T15:28:41;15.20;94.60
24452;DHT22;13350;50.984;5.822;2023-03-16T15:31:11;15.30;94.70
24452;DHT22;13350;50.984;5.822;2023-03-16T15:33:39;14.90;92.10
24452;DHT22;13350;50.984;5.822;2023-03-16T15:36:15;14.80;91.50
24452;DHT22;13350;50.984;5.822;2023-03-16T15:38:45;14.70;92.40
24452;DHT22;13350;50.984;5.822;2023-03-16T15:41:13;14.70;91.50
24452;DHT22;13350;50.984;5.822;2023-03-16T15:43:41;14.70;91.80
24452;DHT22;13350;50.984;5.822;2023-03-16T15:46:10;14.80;91.80
24452;DHT22;13350;50.984;5.822;2023-03-16T15:48:38;14.70;93.10
24452;DHT22;13350;50.984;5.822;2023-03-16T15:51:07;14.70;92.60
24452;DHT22;13350;50.984;5.822;2023-03-16T15:53:41;14.80;92.80
24452;DHT22;13350;50.984;5.822;2023-03-16T15:56:11;14.90;93.10
24452;DHT22;13350;50.984;5.822;2023-03-16T15:58:41;14.90;94.30
24452;DHT22;13350;50.984;5.822;2023-03-16T16:01:18;14.90;95.00